createdAt,value
2019-03-06T00:00:50.458Z,0
2019-03-06T00:01:50.440Z,0
2019-03-06T00:02:50.415Z,0
2019-03-06T00:03:50.401Z,0
2019-03-06T00:04:50.382Z,0
2019-03-06T00:05:50.369Z,0
2019-03-06T00:06:50.349Z,0
2019-03-06T00:07:50.510Z,0
2019-03-06T00:08:50.592Z,0
2019-03-06T00:09:50.309Z,0
2019-03-06T00:10:50.299Z,0
2019-03-06T00:11:50.282Z,0
2019-03-06T00:12:50.267Z,0
2019-03-06T00:13:50.241Z,0
2019-03-06T00:14:50.228Z,0
2019-03-06T00:15:50.211Z,0
2019-03-06T00:16:50.375Z,0
2019-03-06T00:17:50.473Z,0
2019-03-06T00:18:50.169Z,0
2019-03-06T00:19:50.146Z,0
2019-03-06T00:20:50.186Z,0
2019-03-06T00:21:50.117Z,0
2019-03-06T00:22:50.099Z,0
2019-03-06T00:23:50.098Z,0
2019-03-06T00:24:50.072Z,0
2019-03-06T00:25:50.490Z,0
2019-03-06T00:26:50.050Z,0
2019-03-06T00:27:50.030Z,0
2019-03-06T00:28:50.015Z,0
2019-03-06T00:29:50.006Z,0
2019-03-06T00:30:49.991Z,0
2019-03-06T00:31:49.964Z,0
2019-03-06T00:32:49.952Z,0
2019-03-06T00:33:49.935Z,0
2019-03-06T00:34:50.354Z,0
2019-03-06T00:35:49.911Z,0
2019-03-06T00:36:49.900Z,0
2019-03-06T00:37:49.880Z,0
2019-03-06T00:38:49.854Z,0
2019-03-06T00:39:49.838Z,0
2019-03-06T00:40:49.576Z,0
2019-03-06T00:41:49.565Z,0
2019-03-06T00:42:49.786Z,0
2019-03-06T00:43:50.229Z,0
2019-03-06T00:44:49.770Z,0
2019-03-06T00:45:49.745Z,0
2019-03-06T00:46:49.738Z,0
2019-03-06T00:47:49.714Z,0
2019-03-06T00:48:49.731Z,0
2019-03-06T00:49:49.459Z,0
2019-03-06T00:50:49.679Z,0
2019-03-06T00:51:49.718Z,0
2019-03-06T00:52:49.876Z,0
2019-03-06T00:53:49.624Z,0
2019-03-06T00:54:49.606Z,0
2019-03-06T00:55:49.598Z,0
2019-03-06T00:56:49.581Z,0
2019-03-06T00:57:49.567Z,0
2019-03-06T00:58:49.550Z,0
2019-03-06T00:59:49.285Z,0
2019-03-06T01:00:49.600Z,0
2019-03-06T01:01:49.745Z,0
2019-03-06T01:02:49.481Z,0
2019-03-06T01:03:49.468Z,0
2019-03-06T01:04:49.464Z,0
2019-03-06T01:05:49.450Z,0
2019-03-06T01:06:49.417Z,0
2019-03-06T01:07:49.402Z,0
2019-03-06T01:08:49.388Z,0
2019-03-06T01:09:49.712Z,0
2019-03-06T01:10:49.405Z,0
2019-03-06T01:11:49.346Z,0
2019-03-06T01:12:49.334Z,0
2019-03-06T01:13:49.312Z,0
2019-03-06T01:14:49.295Z,0
2019-03-06T01:15:49.281Z,0
2019-03-06T01:16:49.262Z,0
2019-03-06T01:17:49.259Z,0
2019-03-06T01:18:49.847Z,0
2019-03-06T01:19:49.218Z,0
2019-03-06T01:20:49.204Z,0
2019-03-06T01:21:49.191Z,0
2019-03-06T01:22:49.188Z,0
2019-03-06T01:23:48.924Z,0
2019-03-06T01:24:49.149Z,0
2019-03-06T01:25:49.133Z,0
2019-03-06T01:26:49.103Z,0
2019-03-06T01:27:49.639Z,0
2019-03-06T01:28:49.076Z,0
2019-03-06T01:29:49.120Z,0
2019-03-06T01:30:49.051Z,0
2019-03-06T01:31:49.043Z,0
2019-03-06T01:32:49.027Z,0
2019-03-06T01:33:49.005Z,0
2019-03-06T01:34:49.023Z,0
2019-03-06T01:35:48.726Z,0
2019-03-06T01:36:49.402Z,0
2019-03-06T01:37:48.942Z,0
2019-03-06T01:38:48.919Z,0
2019-03-06T01:39:48.914Z,0
2019-03-06T01:40:48.894Z,0
2019-03-06T01:41:48.921Z,0
2019-03-06T01:42:48.853Z,0
2019-03-06T01:43:48.845Z,0
2019-03-06T01:44:48.833Z,0
2019-03-06T01:45:49.284Z,0
2019-03-06T01:46:48.794Z,0
2019-03-06T01:47:48.782Z,0
2019-03-06T01:48:48.763Z,0
2019-03-06T01:49:48.756Z,0
2019-03-06T01:50:48.733Z,0
2019-03-06T01:51:48.718Z,0
2019-03-06T01:52:48.706Z,0
2019-03-06T01:53:48.897Z,0
2019-03-06T01:54:48.862Z,0
2019-03-06T01:55:48.673Z,0
2019-03-06T01:56:48.643Z,0
2019-03-06T01:57:48.624Z,0
2019-03-06T01:58:48.613Z,0
2019-03-06T01:59:48.595Z,0
2019-03-06T02:00:48.591Z,0
2019-03-06T02:01:48.558Z,0
2019-03-06T02:02:49.005Z,0
2019-03-06T02:03:48.533Z,0
2019-03-06T02:04:48.523Z,0
2019-03-06T02:05:48.505Z,0
2019-03-06T02:06:48.487Z,0
2019-03-06T02:07:48.468Z,0
2019-03-06T02:08:48.451Z,0
2019-03-06T02:09:48.437Z,0
2019-03-06T02:10:48.725Z,0
2019-03-06T02:11:48.876Z,0
2019-03-06T02:12:48.400Z,0
2019-03-06T02:13:48.373Z,0
2019-03-06T02:14:48.358Z,0
2019-03-06T02:15:48.341Z,0
2019-03-06T02:16:48.323Z,0
2019-03-06T02:17:48.315Z,0
2019-03-06T02:18:48.298Z,0
2019-03-06T02:19:48.282Z,0
2019-03-06T02:20:48.626Z,0
2019-03-06T02:21:48.265Z,0
2019-03-06T02:22:48.239Z,0
2019-03-06T02:23:47.971Z,0
2019-03-06T02:24:48.214Z,0
2019-03-06T02:25:48.175Z,0
2019-03-06T02:26:48.169Z,0
2019-03-06T02:27:48.146Z,0
2019-03-06T02:28:48.255Z,0
2019-03-06T02:29:48.567Z,0
2019-03-06T02:30:48.118Z,0
2019-03-06T02:31:48.090Z,0
2019-03-06T02:32:48.088Z,0
2019-03-06T02:33:48.069Z,0
2019-03-06T02:34:48.046Z,0
2019-03-06T02:35:48.029Z,0
2019-03-06T02:36:48.027Z,0
2019-03-06T02:37:48.585Z,0
2019-03-06T02:38:47.983Z,0
2019-03-06T02:39:47.981Z,0
2019-03-06T02:40:47.940Z,0
2019-03-06T02:41:47.928Z,0
2019-03-06T02:42:47.924Z,0
2019-03-06T02:43:47.927Z,0
2019-03-06T02:44:47.889Z,0
2019-03-06T02:45:48.330Z,0
2019-03-06T02:46:47.811Z,0
2019-03-06T02:47:47.836Z,0
2019-03-06T02:48:47.819Z,0
2019-03-06T02:49:47.811Z,0
2019-03-06T02:50:47.795Z,0
2019-03-06T02:51:47.795Z,0
2019-03-06T02:52:47.766Z,0
2019-03-06T02:53:47.748Z,0
2019-03-06T02:54:48.223Z,0
2019-03-06T02:55:47.710Z,0
2019-03-06T02:56:47.697Z,0
2019-03-06T02:57:47.671Z,0
2019-03-06T02:58:49.144Z,0
2019-03-06T02:59:47.686Z,0
2019-03-06T03:00:47.635Z,0
2019-03-06T03:01:47.639Z,0
2019-03-06T03:02:47.787Z,0
2019-03-06T03:03:47.854Z,0
2019-03-06T03:04:47.573Z,0
2019-03-06T03:05:47.573Z,0
2019-03-06T03:06:47.538Z,0
2019-03-06T03:07:47.534Z,0
2019-03-06T03:08:47.510Z,0
2019-03-06T03:09:47.487Z,0
2019-03-06T03:10:47.474Z,0
2019-03-06T03:11:47.869Z,0
2019-03-06T03:12:47.745Z,0
2019-03-06T03:13:47.441Z,0
2019-03-06T03:14:47.420Z,0
2019-03-06T03:15:47.418Z,0
2019-03-06T03:16:47.141Z,0
2019-03-06T03:17:47.378Z,0
2019-03-06T03:18:47.356Z,0
2019-03-06T03:19:47.332Z,0
2019-03-06T03:20:47.832Z,0
2019-03-06T03:21:47.307Z,0
2019-03-06T03:22:47.298Z,0
2019-03-06T03:23:47.272Z,0
2019-03-06T03:24:47.253Z,0
2019-03-06T03:25:47.243Z,0
2019-03-06T03:26:47.223Z,0
2019-03-06T03:27:47.214Z,0
2019-03-06T03:28:47.515Z,0
2019-03-06T03:29:47.261Z,0
2019-03-06T03:30:47.213Z,0
2019-03-06T03:31:47.248Z,0
2019-03-06T03:32:47.143Z,0
2019-03-06T03:33:47.146Z,0
2019-03-06T03:34:47.121Z,0
2019-03-06T03:35:46.851Z,0
2019-03-06T03:36:47.061Z,0
2019-03-06T03:37:47.512Z,0
2019-03-06T03:38:47.038Z,0
2019-03-06T03:39:47.011Z,0
2019-03-06T03:40:47.010Z,0
2019-03-06T03:41:46.977Z,0
2019-03-06T03:42:46.968Z,0
2019-03-06T03:43:46.968Z,0
2019-03-06T03:44:46.952Z,0
2019-03-06T03:45:47.337Z,0
2019-03-06T03:46:46.921Z,0
2019-03-06T03:47:46.898Z,0
2019-03-06T03:48:46.900Z,0
2019-03-06T03:49:46.900Z,0
2019-03-06T03:50:46.844Z,0
2019-03-06T03:51:46.825Z,0
2019-03-06T03:52:46.843Z,0
2019-03-06T03:53:46.796Z,0
2019-03-06T03:54:47.226Z,0
2019-03-06T03:55:46.778Z,0
2019-03-06T03:56:46.755Z,0
2019-03-06T03:57:46.747Z,0
2019-03-06T03:58:46.735Z,0
2019-03-06T03:59:46.718Z,0
2019-03-06T04:00:46.436Z,0
2019-03-06T04:01:46.673Z,0
2019-03-06T04:02:47.037Z,0
2019-03-06T04:03:46.670Z,0
2019-03-06T04:04:46.650Z,0
2019-03-06T04:05:46.605Z,0
2019-03-06T04:06:46.597Z,0
2019-03-06T04:07:46.329Z,0
2019-03-06T04:08:46.548Z,0
2019-03-06T04:09:46.528Z,0
2019-03-06T04:10:46.652Z,0
2019-03-06T04:11:46.733Z,0
2019-03-06T04:12:46.479Z,0
2019-03-06T04:13:46.241Z,0
2019-03-06T04:14:46.549Z,0
2019-03-06T04:15:46.441Z,0
2019-03-06T04:16:46.437Z,0
2019-03-06T04:17:46.407Z,0
2019-03-06T04:18:46.404Z,0
2019-03-06T04:19:46.820Z,0
2019-03-06T04:20:46.354Z,0
2019-03-06T04:21:46.371Z,0
2019-03-06T04:22:46.323Z,0
2019-03-06T04:23:46.332Z,0
2019-03-06T04:24:46.303Z,0
2019-03-06T04:25:46.293Z,0
2019-03-06T04:26:46.279Z,0
2019-03-06T04:27:46.492Z,0
2019-03-06T04:28:46.535Z,0
2019-03-06T04:29:46.217Z,0
2019-03-06T04:30:46.194Z,0
2019-03-06T04:31:45.948Z,0
2019-03-06T04:32:46.213Z,0
2019-03-06T04:33:46.155Z,0
2019-03-06T04:34:46.135Z,0
2019-03-06T04:35:46.119Z,0
2019-03-06T04:36:46.490Z,0
2019-03-06T04:37:46.090Z,0
2019-03-06T04:38:46.323Z,0
2019-03-06T04:39:46.053Z,0
2019-03-06T04:40:46.050Z,0
2019-03-06T04:41:46.018Z,0
2019-03-06T04:42:46.005Z,0
2019-03-06T04:43:45.995Z,0
2019-03-06T04:44:45.728Z,0
2019-03-06T04:45:46.462Z,0
2019-03-06T04:46:45.944Z,0
2019-03-06T04:47:45.920Z,0
2019-03-06T04:48:45.913Z,0
2019-03-06T04:49:55.049Z,0
2019-03-06T04:50:45.877Z,0
2019-03-06T04:51:45.625Z,0
2019-03-06T04:52:45.847Z,0
2019-03-06T04:53:46.056Z,0
2019-03-06T04:54:46.001Z,0
2019-03-06T04:55:45.799Z,0
2019-03-06T04:56:45.781Z,0
2019-03-06T04:57:45.761Z,0
2019-03-06T04:58:45.756Z,0
2019-03-06T04:59:45.732Z,0
2019-03-06T05:00:45.720Z,0
2019-03-06T05:01:45.701Z,0
2019-03-06T05:02:46.011Z,0
2019-03-06T05:03:45.675Z,0
2019-03-06T05:04:45.655Z,0
2019-03-06T05:05:45.955Z,0
2019-03-06T05:06:45.626Z,0
2019-03-06T05:07:45.610Z,4
2019-03-06T05:08:45.592Z,4
2019-03-06T05:09:45.582Z,0
2019-03-06T05:10:45.551Z,4
2019-03-06T05:11:46.036Z,4
2019-03-06T05:12:45.522Z,4
2019-03-06T05:13:45.511Z,4
2019-03-06T05:14:45.486Z,4
2019-03-06T05:15:45.476Z,8
2019-03-06T05:16:45.460Z,8
2019-03-06T05:17:45.443Z,8
2019-03-06T05:18:47.517Z,8
2019-03-06T05:19:45.691Z,12
2019-03-06T05:20:45.675Z,12
2019-03-06T05:21:45.384Z,16
2019-03-06T05:22:45.365Z,24
2019-03-06T05:23:45.350Z,24
2019-03-06T05:24:45.335Z,28
2019-03-06T05:25:45.321Z,32
2019-03-06T05:26:45.305Z,40
2019-03-06T05:27:45.330Z,48
2019-03-06T05:28:45.693Z,56
2019-03-06T05:29:45.250Z,64
2019-03-06T05:30:45.238Z,76
2019-03-06T05:31:45.225Z,88
2019-03-06T05:32:45.193Z,100
2019-03-06T05:33:45.184Z,116
2019-03-06T05:34:45.172Z,132
2019-03-06T05:35:45.169Z,152
2019-03-06T05:36:45.143Z,172
2019-03-06T05:37:45.378Z,188
2019-03-06T05:38:45.110Z,208
2019-03-06T05:39:45.086Z,228
2019-03-06T05:40:45.081Z,252
2019-03-06T05:41:45.074Z,276
2019-03-06T05:42:45.045Z,300
2019-03-06T05:43:45.027Z,332
2019-03-06T05:44:45.014Z,368
2019-03-06T05:45:45.001Z,404
2019-03-06T05:46:45.428Z,444
2019-03-06T05:47:44.968Z,480
2019-03-06T05:48:44.949Z,516
2019-03-06T05:49:44.694Z,552
2019-03-06T05:50:44.680Z,600
2019-03-06T05:51:44.912Z,632
2019-03-06T05:52:44.890Z,664
2019-03-06T05:53:44.867Z,704
2019-03-06T05:54:44.850Z,760
2019-03-06T05:55:45.341Z,848
2019-03-06T05:56:44.824Z,940
2019-03-06T05:57:44.805Z,1028
2019-03-06T05:58:44.798Z,1100
2019-03-06T05:59:44.774Z,1180
2019-03-06T06:00:44.759Z,1264
2019-03-06T06:01:44.753Z,1324
2019-03-06T06:02:44.732Z,1392
2019-03-06T06:03:44.708Z,1452
2019-03-06T06:04:45.187Z,1512
2019-03-06T06:05:44.736Z,1600
2019-03-06T06:06:44.678Z,1720
2019-03-06T06:07:46.321Z,1884
2019-03-06T06:08:44.631Z,2048
2019-03-06T06:09:44.614Z,2220
2019-03-06T06:10:44.601Z,2436
2019-03-06T06:11:44.580Z,2636
2019-03-06T06:12:44.551Z,2808
2019-03-06T06:13:44.735Z,2940
2019-03-06T06:14:44.540Z,3052
2019-03-06T06:15:44.531Z,3148
2019-03-06T06:16:44.511Z,3224
2019-03-06T06:17:44.496Z,3280
2019-03-06T06:18:44.239Z,3336
2019-03-06T06:19:44.467Z,3388
2019-03-06T06:20:44.447Z,3412
2019-03-06T06:21:44.648Z,3464
2019-03-06T06:22:44.408Z,3488
2019-03-06T06:23:44.388Z,3512
2019-03-06T06:24:45.579Z,3528
2019-03-06T06:25:44.384Z,3488
2019-03-06T06:26:44.127Z,3424
2019-03-06T06:27:44.345Z,3380
2019-03-06T06:28:44.330Z,3364
2019-03-06T06:29:44.318Z,3360
2019-03-06T06:30:44.703Z,3340
2019-03-06T06:31:44.278Z,3328
2019-03-06T06:32:44.269Z,3260
2019-03-06T06:33:44.253Z,3256
2019-03-06T06:34:44.247Z,3180
2019-03-06T06:35:44.228Z,3184
2019-03-06T06:36:44.214Z,3208
2019-03-06T06:37:44.194Z,3312
2019-03-06T06:38:44.703Z,3348
2019-03-06T06:39:44.677Z,3312
2019-03-06T06:40:44.148Z,3440
2019-03-06T06:41:44.158Z,3504
2019-03-06T06:42:44.134Z,3744
2019-03-06T06:43:44.115Z,4064
2019-03-06T06:44:44.109Z,4344
2019-03-06T06:45:44.099Z,4928
2019-03-06T06:46:44.078Z,5464
2019-03-06T06:47:44.263Z,5944
2019-03-06T06:48:43.811Z,6856
2019-03-06T06:49:44.044Z,7092
2019-03-06T06:50:44.026Z,6292
2019-03-06T06:51:44.031Z,6268
2019-03-06T06:52:44.008Z,6640
2019-03-06T06:53:43.990Z,6844
2019-03-06T06:54:43.970Z,7288
2019-03-06T06:55:43.960Z,7964
2019-03-06T06:56:44.156Z,7520
2019-03-06T06:57:44.180Z,8436
2019-03-06T06:58:43.984Z,8404
2019-03-06T06:59:43.904Z,8828
2019-03-06T07:00:43.891Z,9164
2019-03-06T07:01:43.881Z,8632
2019-03-06T07:02:43.866Z,8644
2019-03-06T07:03:43.863Z,8256
2019-03-06T07:04:43.837Z,8760
2019-03-06T07:05:43.956Z,9520
2019-03-06T07:06:44.254Z,10268
2019-03-06T07:07:43.568Z,11056
2019-03-06T07:08:43.797Z,11152
2019-03-06T07:09:43.785Z,11980
2019-03-06T07:10:43.771Z,11964
2019-03-06T07:11:43.774Z,12276
2019-03-06T07:12:43.757Z,12896
2019-03-06T07:13:43.738Z,12876
2019-03-06T07:14:43.901Z,13376
2019-03-06T07:15:44.024Z,12248
2019-03-06T07:16:43.710Z,13280
2019-03-06T07:17:43.699Z,13568
2019-03-06T07:18:43.694Z,12136
2019-03-06T07:19:43.678Z,13600
2019-03-06T07:20:43.669Z,12936
2019-03-06T07:21:43.668Z,13360
2019-03-06T07:22:43.653Z,13696
2019-03-06T07:23:43.862Z,13728
2019-03-06T07:24:44.092Z,13984
2019-03-06T07:25:43.626Z,14336
2019-03-06T07:26:43.626Z,14816
2019-03-06T07:27:43.622Z,15200
2019-03-06T07:28:43.602Z,13544
2019-03-06T07:29:43.585Z,12324
2019-03-06T07:30:43.576Z,12860
2019-03-06T07:31:43.576Z,13420
2019-03-06T07:32:43.604Z,13816
2019-03-06T07:33:44.097Z,13176
2019-03-06T07:34:43.558Z,13404
2019-03-06T07:35:43.544Z,13752
2019-03-06T07:36:43.534Z,14816
2019-03-06T07:37:43.517Z,15488
2019-03-06T07:38:43.525Z,15488
2019-03-06T07:39:43.496Z,14000
2019-03-06T07:40:43.490Z,15232
2019-03-06T07:41:43.481Z,15200
2019-03-06T07:42:43.784Z,15936
2019-03-06T07:43:43.222Z,16896
2019-03-06T07:44:43.455Z,17312
2019-03-06T07:45:43.451Z,16864
2019-03-06T07:46:43.439Z,17632
2019-03-06T07:47:43.434Z,18176
2019-03-06T07:48:43.425Z,17504
2019-03-06T07:49:52.204Z,16992
2019-03-06T07:50:43.166Z,17120
2019-03-06T07:51:43.717Z,17600
2019-03-06T07:52:43.388Z,17664
2019-03-06T07:53:43.389Z,17792
2019-03-06T07:54:43.375Z,18752
2019-03-06T07:55:43.358Z,18816
2019-03-06T07:56:43.367Z,18272
2019-03-06T07:57:43.348Z,18688
2019-03-06T07:58:43.345Z,18976
2019-03-06T07:59:43.354Z,19936
2019-03-06T08:00:43.552Z,20768
2019-03-06T08:01:43.323Z,19328
2019-03-06T08:02:43.070Z,17632
2019-03-06T08:03:43.055Z,12984
2019-03-06T08:04:43.304Z,8860
2019-03-06T08:05:43.297Z,9060
2019-03-06T08:06:43.282Z,9184
2019-03-06T08:07:43.291Z,9036
2019-03-06T08:08:43.269Z,8876
2019-03-06T08:09:43.542Z,8636
2019-03-06T08:10:43.579Z,8360
2019-03-06T08:11:43.241Z,7772
2019-03-06T08:12:43.238Z,7356
2019-03-06T08:13:43.222Z,7296
2019-03-06T08:14:43.207Z,7496
2019-03-06T08:15:43.210Z,7144
2019-03-06T08:16:43.199Z,7180
2019-03-06T08:17:43.183Z,7228
2019-03-06T08:18:43.265Z,7228
2019-03-06T08:19:43.268Z,7136
2019-03-06T08:20:43.155Z,7004
2019-03-06T08:21:42.925Z,6868
2019-03-06T08:22:43.134Z,6752
2019-03-06T08:23:43.123Z,6640
2019-03-06T08:24:42.875Z,6544
2019-03-06T08:25:43.107Z,6480
2019-03-06T08:26:43.091Z,6464
2019-03-06T08:27:43.293Z,6444
2019-03-06T08:28:43.308Z,6428
2019-03-06T08:29:43.065Z,6256
2019-03-06T08:30:43.389Z,6376
2019-03-06T08:31:43.055Z,6380
2019-03-06T08:32:43.039Z,6364
2019-03-06T08:33:43.027Z,6332
2019-03-06T08:34:43.014Z,6248
2019-03-06T08:35:42.765Z,6204
2019-03-06T08:36:43.225Z,6156
2019-03-06T08:37:43.275Z,6124
2019-03-06T08:38:42.977Z,6128
2019-03-06T08:39:42.960Z,6076
2019-03-06T08:40:42.953Z,6048
2019-03-06T08:41:42.940Z,6088
2019-03-06T08:42:42.937Z,6072
2019-03-06T08:43:42.963Z,6076
2019-03-06T08:44:42.911Z,6084
2019-03-06T08:45:43.384Z,6076
2019-03-06T08:46:42.886Z,6104
2019-03-06T08:47:42.877Z,6096
2019-03-06T08:48:42.864Z,6128
2019-03-06T08:49:42.860Z,6184
2019-03-06T08:50:42.842Z,6184
2019-03-06T08:51:42.837Z,6344
2019-03-06T08:52:42.818Z,6512
2019-03-06T08:53:42.809Z,6660
2019-03-06T08:54:43.332Z,6780
2019-03-06T08:55:42.802Z,6904
2019-03-06T08:56:42.785Z,6972
2019-03-06T08:57:42.768Z,6996
2019-03-06T08:58:42.764Z,6900
2019-03-06T08:59:42.746Z,6780
2019-03-06T09:00:42.738Z,6608
2019-03-06T09:01:42.726Z,6480
2019-03-06T09:02:42.710Z,6420
2019-03-06T09:03:43.142Z,6424
2019-03-06T09:04:42.690Z,6624
2019-03-06T09:05:42.684Z,6888
2019-03-06T09:06:42.679Z,7292
2019-03-06T09:07:42.658Z,7720
2019-03-06T09:08:42.648Z,7888
2019-03-06T09:09:42.684Z,7684
2019-03-06T09:10:42.630Z,7760
2019-03-06T09:11:44.274Z,7564
2019-03-06T09:12:43.069Z,7752
2019-03-06T09:13:42.594Z,7700
2019-03-06T09:14:42.630Z,7732
2019-03-06T09:15:42.578Z,7736
2019-03-06T09:16:42.565Z,7808
2019-03-06T09:17:42.559Z,7764
2019-03-06T09:18:42.552Z,7656
2019-03-06T09:19:42.537Z,7672
2019-03-06T09:20:47.801Z,7752
2019-03-06T09:21:42.892Z,7744
2019-03-06T09:22:44.673Z,7832
2019-03-06T09:23:42.494Z,7912
2019-03-06T09:24:42.494Z,7944
2019-03-06T09:25:42.477Z,8060
2019-03-06T09:26:42.230Z,8120
2019-03-06T09:27:42.455Z,8152
2019-03-06T09:28:42.437Z,8152
2019-03-06T09:29:42.435Z,8216
2019-03-06T09:30:42.852Z,8336
2019-03-06T09:31:42.417Z,8468
2019-03-06T09:32:42.403Z,8660
2019-03-06T09:33:42.402Z,8756
2019-03-06T09:34:42.386Z,8828
2019-03-06T09:35:42.381Z,8968
2019-03-06T09:36:42.378Z,9196
2019-03-06T09:37:42.358Z,9520
2019-03-06T09:38:42.356Z,9788
2019-03-06T09:39:42.563Z,9992
2019-03-06T09:40:42.327Z,10124
2019-03-06T09:41:42.314Z,10192
2019-03-06T09:42:42.330Z,10128
2019-03-06T09:43:42.302Z,9984
2019-03-06T09:44:42.311Z,9796
2019-03-06T09:45:42.285Z,9552
2019-03-06T09:46:42.280Z,9424
2019-03-06T09:47:42.266Z,9276
2019-03-06T09:48:42.692Z,9168
2019-03-06T09:49:42.246Z,9084
2019-03-06T09:50:42.234Z,9020
2019-03-06T09:51:42.223Z,9004
2019-03-06T09:52:42.215Z,8956
2019-03-06T09:53:42.204Z,8980
2019-03-06T09:54:42.202Z,9000
2019-03-06T09:55:42.189Z,8972
2019-03-06T09:56:42.328Z,8968
2019-03-06T09:57:42.368Z,8964
2019-03-06T09:58:42.164Z,9052
2019-03-06T09:59:42.148Z,9108
2019-03-06T10:00:42.139Z,9148
2019-03-06T10:01:42.137Z,9188
2019-03-06T10:02:42.133Z,9196
2019-03-06T10:03:41.882Z,9216
2019-03-06T10:04:42.110Z,9248
2019-03-06T10:05:42.322Z,9248
2019-03-06T10:06:42.335Z,9236
2019-03-06T10:07:42.088Z,9140
2019-03-06T10:08:42.072Z,9128
2019-03-06T10:09:42.075Z,9120
2019-03-06T10:10:59.842Z,9168
2019-03-06T10:11:42.052Z,9164
2019-03-06T10:12:49.861Z,9128
2019-03-06T10:13:48.880Z,9120
2019-03-06T10:14:42.328Z,9144
2019-03-06T10:15:42.035Z,9072
2019-03-06T10:16:50.904Z,8868
2019-03-06T10:17:42.016Z,8684
2019-03-06T10:18:42.002Z,8416
2019-03-06T10:19:41.993Z,8208
2019-03-06T10:20:41.994Z,7968
2019-03-06T10:21:41.747Z,7688
2019-03-06T10:22:42.163Z,7416
2019-03-06T10:23:41.996Z,7172
2019-03-06T10:24:41.989Z,6980
2019-03-06T10:25:41.983Z,6776
2019-03-06T10:26:41.969Z,6572
2019-03-06T10:27:41.731Z,6428
2019-03-06T10:28:44.419Z,6288
2019-03-06T10:29:41.922Z,6164
2019-03-06T10:30:41.952Z,6048
2019-03-06T10:31:43.454Z,5928
2019-03-06T10:32:41.912Z,5812
2019-03-06T10:33:42.564Z,5804
2019-03-06T10:34:41.923Z,5876
2019-03-06T10:35:42.014Z,6000
2019-03-06T10:36:41.899Z,6148
2019-03-06T10:37:41.873Z,6216
2019-03-06T10:38:41.897Z,6264
2019-03-06T10:39:41.901Z,6300
2019-03-06T10:40:42.183Z,6336
2019-03-06T10:41:41.865Z,6332
2019-03-06T10:42:41.849Z,6248
2019-03-06T10:43:52.037Z,6116
2019-03-06T10:44:41.841Z,6052
2019-03-06T10:45:48.363Z,5976
2019-03-06T10:46:41.772Z,5896
2019-03-06T10:47:41.544Z,5808
2019-03-06T10:48:42.305Z,5768
2019-03-06T10:49:41.770Z,5776
2019-03-06T10:50:41.786Z,5784
2019-03-06T10:51:41.802Z,5828
2019-03-06T10:52:41.767Z,5872
2019-03-06T10:53:50.771Z,5924
2019-03-06T10:54:49.602Z,5992
2019-03-06T10:55:42.032Z,6004
2019-03-06T10:56:41.710Z,6048
2019-03-06T10:57:41.711Z,6156
2019-03-06T10:58:42.091Z,6332
2019-03-06T10:59:41.701Z,6488
2019-03-06T11:00:41.698Z,6632
2019-03-06T11:01:41.723Z,6764
2019-03-06T11:02:41.485Z,6824
2019-03-06T11:03:42.217Z,6864
2019-03-06T11:04:41.653Z,6900
2019-03-06T11:05:41.662Z,6964
2019-03-06T11:06:41.387Z,7020
2019-03-06T11:07:41.639Z,7092
2019-03-06T11:08:41.842Z,7224
2019-03-06T11:09:41.611Z,7388
2019-03-06T11:10:41.529Z,7524
2019-03-06T11:11:41.604Z,7672
2019-03-06T11:12:41.601Z,7832
2019-03-06T11:13:42.018Z,8048
2019-03-06T11:14:41.587Z,8312
2019-03-06T11:15:41.647Z,8616
2019-03-06T11:16:44.802Z,8912
2019-03-06T11:17:42.214Z,9180
2019-03-06T11:18:41.505Z,9424
2019-03-06T11:19:41.505Z,9592
2019-03-06T11:20:42.915Z,9728
2019-03-06T11:21:41.480Z,9868
2019-03-06T11:22:41.463Z,10036
2019-03-06T11:23:41.448Z,10200
2019-03-06T11:24:41.461Z,10380
2019-03-06T11:25:41.457Z,10524
2019-03-06T11:26:41.938Z,10700
2019-03-06T11:27:41.438Z,10904
2019-03-06T11:28:41.429Z,11120
2019-03-06T11:29:41.437Z,11352
2019-03-06T11:30:41.407Z,11620
2019-03-06T11:31:41.400Z,11856
2019-03-06T11:32:41.398Z,12032
2019-03-06T11:33:41.702Z,12172
2019-03-06T11:34:41.550Z,12196
2019-03-06T11:35:41.392Z,12156
2019-03-06T11:36:41.368Z,12096
2019-03-06T11:37:41.469Z,12056
2019-03-06T11:38:41.355Z,12100
2019-03-06T11:39:41.339Z,12204
2019-03-06T11:40:41.332Z,12308
2019-03-06T11:41:41.311Z,12464
2019-03-06T11:42:41.781Z,12484
2019-03-06T11:43:41.307Z,12336
2019-03-06T11:44:41.301Z,12048
2019-03-06T11:45:41.319Z,11688
2019-03-06T11:46:41.277Z,11268
2019-03-06T11:47:41.283Z,10848
2019-03-06T11:48:41.270Z,10472
2019-03-06T11:49:41.278Z,10196
2019-03-06T11:50:48.134Z,9908
2019-03-06T11:51:41.243Z,9724
2019-03-06T11:52:41.993Z,9500
2019-03-06T11:53:41.225Z,9352
2019-03-06T11:54:41.222Z,9332
2019-03-06T11:55:41.255Z,9340
2019-03-06T11:56:41.234Z,9324
2019-03-06T11:57:41.202Z,9236
2019-03-06T11:58:41.515Z,9076
2019-03-06T11:59:41.196Z,9024
2019-03-06T12:00:41.213Z,9100
2019-03-06T12:01:50.550Z,9272
2019-03-06T12:02:41.179Z,9380
2019-03-06T12:03:41.174Z,9416
2019-03-06T12:04:41.177Z,9408
2019-03-06T12:05:41.618Z,9360
2019-03-06T12:06:41.166Z,9168
2019-03-06T12:07:41.181Z,8908
2019-03-06T12:08:50.170Z,8692
2019-03-06T12:09:41.158Z,8568
2019-03-06T12:10:41.129Z,8436
2019-03-06T12:11:41.158Z,8308
2019-03-06T12:12:41.100Z,8096
2019-03-06T12:13:41.333Z,7732
2019-03-06T12:14:41.095Z,7336
2019-03-06T12:15:41.099Z,7008
2019-03-06T12:16:48.869Z,6716
2019-03-06T12:17:41.075Z,6628
2019-03-06T12:18:41.337Z,6568
2019-03-06T12:19:41.081Z,6464
2019-03-06T12:20:41.406Z,6288
2019-03-06T12:21:41.256Z,6024
2019-03-06T12:22:41.033Z,5788
2019-03-06T12:23:41.727Z,5600
2019-03-06T12:24:41.036Z,5440
2019-03-06T12:25:41.452Z,5284
2019-03-06T12:26:41.043Z,5264
2019-03-06T12:27:41.009Z,5264
2019-03-06T12:28:41.311Z,5292
2019-03-06T12:29:40.982Z,5284
2019-03-06T12:30:40.988Z,5336
2019-03-06T12:31:40.970Z,5404
2019-03-06T12:32:40.955Z,5484
2019-03-06T12:33:40.960Z,5544
2019-03-06T12:34:40.951Z,5568
2019-03-06T12:35:40.932Z,5516
2019-03-06T12:36:41.034Z,5508
2019-03-06T12:37:49.183Z,5616
2019-03-06T12:38:42.610Z,5724
2019-03-06T12:39:40.918Z,5848
2019-03-06T12:40:40.904Z,5960
2019-03-06T12:41:40.891Z,6040
2019-03-06T12:42:40.911Z,6128
2019-03-06T12:43:40.891Z,6084
2019-03-06T12:44:40.877Z,5948
2019-03-06T12:45:41.289Z,5788
2019-03-06T12:46:40.924Z,5640
2019-03-06T12:47:40.871Z,5584
2019-03-06T12:48:40.861Z,5576
2019-03-06T12:49:40.840Z,5620
2019-03-06T12:50:40.833Z,5644
2019-03-06T12:51:40.833Z,5652
2019-03-06T12:52:40.868Z,5656
2019-03-06T12:53:41.249Z,5616
2019-03-06T12:54:40.821Z,5544
2019-03-06T12:55:40.796Z,5516
2019-03-06T12:56:40.808Z,5520
2019-03-06T12:57:40.789Z,5612
2019-03-06T12:58:40.785Z,5788
2019-03-06T12:59:40.776Z,6036
2019-03-06T13:00:40.758Z,6440
2019-03-06T13:01:41.687Z,6992
2019-03-06T13:02:40.759Z,7524
2019-03-06T13:03:40.753Z,7924
2019-03-06T13:04:41.358Z,8184
2019-03-06T13:05:40.773Z,8320
2019-03-06T13:06:40.755Z,8236
2019-03-06T13:07:40.728Z,7936
2019-03-06T13:08:49.762Z,7460
2019-03-06T13:09:42.665Z,6960
2019-03-06T13:10:40.715Z,6564
2019-03-06T13:11:40.699Z,6216
2019-03-06T13:12:42.997Z,6016
2019-03-06T13:13:42.958Z,5920
2019-03-06T13:14:40.849Z,5820
2019-03-06T13:15:40.677Z,5816
2019-03-06T13:16:43.418Z,5816
2019-03-06T13:17:41.325Z,5764
2019-03-06T13:18:40.649Z,5640
2019-03-06T13:19:40.634Z,5512
2019-03-06T13:20:40.629Z,5392
2019-03-06T13:21:40.634Z,5312
2019-03-06T13:22:40.628Z,5248
2019-03-06T13:23:40.637Z,5224
2019-03-06T13:24:40.804Z,5228
2019-03-06T13:25:40.882Z,5300
2019-03-06T13:26:40.597Z,5416
2019-03-06T13:27:40.624Z,5488
2019-03-06T13:28:40.604Z,5500
2019-03-06T13:29:40.574Z,5388
2019-03-06T13:30:41.542Z,5220
2019-03-06T13:31:40.576Z,5036
2019-03-06T13:32:40.877Z,4884
2019-03-06T13:33:40.539Z,4764
2019-03-06T13:34:50.097Z,4664
2019-03-06T13:35:40.539Z,4580
2019-03-06T13:36:40.557Z,4544
2019-03-06T13:37:40.525Z,4532
2019-03-06T13:38:40.537Z,4536
2019-03-06T13:39:40.519Z,4568
2019-03-06T13:40:40.820Z,4696
2019-03-06T13:41:40.491Z,4808
2019-03-06T13:42:40.505Z,4840
2019-03-06T13:43:40.500Z,4800
2019-03-06T13:44:40.491Z,4724
2019-03-06T13:45:40.471Z,4644
2019-03-06T13:46:40.491Z,4588
2019-03-06T13:47:40.453Z,4580
2019-03-06T13:48:40.785Z,4548
2019-03-06T13:49:40.458Z,4528